createdAt,value
2019-03-08T00:01:01.956Z,48.55
2019-03-08T00:03:37.446Z,55.92
2019-03-08T00:06:11.942Z,52.48
2019-03-08T00:08:46.300Z,51.20
2019-03-08T00:11:20.563Z,52.75
2019-03-08T00:13:55.100Z,50.33
2019-03-08T00:16:29.345Z,50.05
2019-03-08T00:19:03.623Z,49.38
2019-03-08T00:21:37.721Z,53.40
2019-03-08T00:24:12.337Z,50.90
2019-03-08T00:26:46.620Z,54.20
2019-03-08T00:29:20.952Z,51.15
2019-03-08T00:31:56.079Z,52.75
2019-03-08T00:34:30.453Z,55.38
2019-03-08T00:37:04.886Z,50.88
2019-03-08T00:39:39.609Z,45.65
2019-03-08T00:42:13.743Z,55.35
2019-03-08T00:44:48.455Z,52.55
2019-03-08T00:47:22.488Z,50.52
2019-03-08T00:49:56.738Z,46.65
2019-03-08T00:52:33.072Z,55.95
2019-03-08T00:55:08.055Z,53.65
2019-03-08T00:57:43.551Z,55.05
2019-03-08T01:00:19.765Z,51.65
2019-03-08T01:02:54.141Z,56.90
2019-03-08T01:05:30.199Z,52.15
2019-03-08T01:08:04.873Z,52.43
2019-03-08T01:10:39.195Z,57.85
2019-03-08T01:13:13.255Z,53.28
2019-03-08T01:15:47.333Z,58.02
2019-03-08T01:18:21.470Z,58.73
2019-03-08T01:20:55.770Z,59.10
2019-03-08T01:23:30.038Z,60.60
2019-03-08T01:26:04.376Z,57.40
2019-03-08T01:28:39.559Z,49.88
2019-03-08T01:31:13.886Z,55.75
2019-03-08T01:33:48.264Z,55.45
2019-03-08T01:36:23.587Z,62.67
2019-03-08T01:38:57.615Z,59.03
2019-03-08T01:41:31.881Z,68.10
2019-03-08T01:44:06.128Z,71.82
2019-03-08T01:46:40.650Z,79.55
2019-03-08T01:49:14.621Z,82.15
2019-03-08T01:51:48.873Z,77.50
2019-03-08T01:54:23.032Z,76.53
2019-03-08T01:56:57.112Z,68.78
2019-03-08T01:59:31.131Z,75.15
2019-03-08T02:02:05.377Z,80.60
2019-03-08T02:04:39.592Z,76.42
2019-03-08T02:07:13.931Z,78.02
2019-03-08T02:09:48.208Z,71.55
2019-03-08T02:12:23.207Z,77.62
2019-03-08T02:14:57.433Z,76.20
2019-03-08T02:17:32.420Z,70.83
2019-03-08T02:20:07.189Z,75.03
2019-03-08T02:22:41.478Z,81.85
2019-03-08T02:25:16.286Z,76.47
2019-03-08T02:27:51.354Z,75.83
2019-03-08T02:30:25.549Z,77.27
2019-03-08T02:32:59.604Z,68.15
2019-03-08T02:35:33.808Z,70.08
2019-03-08T02:38:07.950Z,68.07
2019-03-08T02:40:42.555Z,77.75
2019-03-08T02:43:18.425Z,72.58
2019-03-08T02:45:54.708Z,74.77
2019-03-08T02:48:28.710Z,66.57
2019-03-08T02:51:03.014Z,65.65
2019-03-08T02:53:37.324Z,70.03
2019-03-08T02:56:11.645Z,86.12
2019-03-08T02:58:45.866Z,75.42
2019-03-08T03:01:21.187Z,74.27
2019-03-08T03:03:55.464Z,70.67
2019-03-08T03:06:29.685Z,77.37
2019-03-08T03:09:04.120Z,85.90
2019-03-08T03:11:39.572Z,85.30
2019-03-08T03:14:15.453Z,106.43
2019-03-08T03:16:49.553Z,108.32
2019-03-08T03:19:24.999Z,123.38
2019-03-08T03:22:00.252Z,123.85
2019-03-08T03:24:34.523Z,119.95
2019-03-08T03:27:08.930Z,115.75
2019-03-08T03:29:43.328Z,121.67
2019-03-08T03:32:17.490Z,119.85
2019-03-08T03:34:51.785Z,119.20
2019-03-08T03:37:25.850Z,123.85
2019-03-08T03:40:00.356Z,119.33
2019-03-08T03:42:35.781Z,120.02
2019-03-08T03:45:10.973Z,114.72
2019-03-08T03:47:45.126Z,114.77
2019-03-08T03:50:19.339Z,114.70
2019-03-08T03:52:53.292Z,137.18
2019-03-08T03:55:27.632Z,134.90
2019-03-08T03:58:02.174Z,147.37
2019-03-08T04:00:36.521Z,144.77
2019-03-08T04:03:10.921Z,149.75
2019-03-08T04:05:45.232Z,157.60
2019-03-08T04:08:19.633Z,146.32
2019-03-08T04:10:53.933Z,147.30
2019-03-08T04:13:28.214Z,147.37
2019-03-08T04:16:02.552Z,137.15
2019-03-08T04:18:36.948Z,145.02
2019-03-08T04:21:11.305Z,153.87
2019-03-08T04:23:45.514Z,141.30
2019-03-08T04:26:19.596Z,149.80
2019-03-08T04:28:53.725Z,141.77
2019-03-08T04:31:28.154Z,146.22
2019-03-08T04:34:04.015Z,139.40
2019-03-08T04:36:38.226Z,150.27
2019-03-08T04:39:12.533Z,146.65
2019-03-08T04:41:46.626Z,140.90
2019-03-08T04:44:21.086Z,155.35
2019-03-08T04:46:55.281Z,149.80
2019-03-08T04:49:29.356Z,149.10
2019-03-08T04:52:03.351Z,149.18
2019-03-08T04:54:37.685Z,149.18
2019-03-08T04:57:12.098Z,140.28
2019-03-08T04:59:46.181Z,144.37
2019-03-08T05:02:20.502Z,425.10
2019-03-08T05:04:54.796Z,400.68
2019-03-08T05:07:29.417Z,324.00
2019-03-08T05:10:03.588Z,343.65
2019-03-08T05:12:37.603Z,320.50
2019-03-08T05:15:12.020Z,255.67
2019-03-08T05:17:46.359Z,252.50
2019-03-08T05:20:20.582Z,189.85
2019-03-08T05:22:54.723Z,205.18
2019-03-08T05:25:29.150Z,194.05
2019-03-08T05:28:04.847Z,206.72
2019-03-08T05:30:40.516Z,207.77
2019-03-08T05:33:14.755Z,168.30
2019-03-08T05:35:48.989Z,177.60
2019-03-08T05:38:22.956Z,186.95
2019-03-08T05:40:57.140Z,184.00
2019-03-08T05:43:31.535Z,163.10
2019-03-08T05:46:05.681Z,159.72
2019-03-08T05:48:40.984Z,179.60
2019-03-08T05:51:15.291Z,160.25
2019-03-08T05:53:49.700Z,146.57
2019-03-08T05:56:23.853Z,148.50
2019-03-08T05:58:58.256Z,162.53
2019-03-08T06:01:32.775Z,141.62
2019-03-08T06:04:07.126Z,137.60
2019-03-08T06:06:42.388Z,165.15
2019-03-08T06:09:16.611Z,137.45
2019-03-08T06:11:50.935Z,158.30
2019-03-08T06:14:25.069Z,140.32
2019-03-08T06:16:59.275Z,127.65
2019-03-08T06:19:34.494Z,127.40
2019-03-08T06:22:08.980Z,120.82
2019-03-08T06:24:43.454Z,133.45
2019-03-08T06:27:17.637Z,121.22
2019-03-08T06:29:51.925Z,117.30
2019-03-08T06:32:26.216Z,131.70
2019-03-08T06:35:00.563Z,132.15
2019-03-08T06:37:35.024Z,110.08
2019-03-08T06:40:09.161Z,122.07
2019-03-08T06:42:43.336Z,107.32
2019-03-08T06:45:17.881Z,119.30
2019-03-08T06:47:52.027Z,115.35
2019-03-08T06:50:27.451Z,120.72
2019-03-08T06:53:01.744Z,107.43
2019-03-08T06:55:36.125Z,115.35
2019-03-08T06:58:10.242Z,96.32
2019-03-08T07:00:54.709Z,107.63
2019-03-08T07:03:29.044Z,95.80
2019-03-08T07:06:03.354Z,100.58
2019-03-08T07:08:42.066Z,102.22
2019-03-08T07:11:17.223Z,88.58
2019-03-08T07:13:51.434Z,89.75
2019-03-08T07:16:25.681Z,92.88
2019-03-08T07:19:02.091Z,91.45
2019-03-08T07:21:44.095Z,94.13
2019-03-08T07:24:43.096Z,108.30
2019-03-08T07:27:54.168Z,88.70
2019-03-08T07:30:45.953Z,98.03
2019-03-08T07:33:37.043Z,89.22
2019-03-08T07:36:32.931Z,89.70
2019-03-08T07:39:21.931Z,80.57
2019-03-08T07:42:34.096Z,79.82
2019-03-08T07:48:20.521Z,83.58
2019-03-08T07:51:13.574Z,77.78
2019-03-08T07:54:10.335Z,85.45
2019-03-08T07:56:53.383Z,79.90
2019-03-08T07:59:53.759Z,87.27
2019-03-08T08:02:48.000Z,73.55
2019-03-08T08:05:32.119Z,81.17
2019-03-08T08:08:23.946Z,69.70
2019-03-08T08:11:27.139Z,71.47
2019-03-08T08:14:26.014Z,82.15
2019-03-08T08:17:31.507Z,78.70
2019-03-08T08:20:23.383Z,64.85
2019-03-08T08:23:17.413Z,75.37
2019-03-08T08:26:14.417Z,68.25
2019-03-08T08:29:05.889Z,69.12
2019-03-08T08:32:12.199Z,72.22
2019-03-08T08:34:52.394Z,73.57
2019-03-08T08:37:43.770Z,69.87
2019-03-08T08:40:36.325Z,61.98
2019-03-08T08:43:44.584Z,63.73
2019-03-08T08:46:31.874Z,87.30
2019-03-08T08:49:38.118Z,71.60
2019-03-08T08:52:22.801Z,64.10
2019-03-08T08:55:22.038Z,61.23
2019-03-08T08:58:30.344Z,69.67
2019-03-08T09:01:14.677Z,72.47
2019-03-08T09:04:03.849Z,76.87
2019-03-08T09:06:50.293Z,64.53
2019-03-08T09:09:51.802Z,64.53
2019-03-08T09:12:36.429Z,70.22
2019-03-08T09:15:19.488Z,69.87
2019-03-08T09:18:03.096Z,62.50
2019-03-08T09:21:02.075Z,60.17
2019-03-08T09:23:59.230Z,60.75
2019-03-08T09:27:01.599Z,51.48
2019-03-08T09:30:03.775Z,52.58
2019-03-08T09:32:59.443Z,60.88
2019-03-08T09:35:52.665Z,52.27
2019-03-08T09:38:54.821Z,51.70
2019-03-08T09:41:47.612Z,69.85
2019-03-08T09:47:18.569Z,51.75
2019-03-08T09:50:13.078Z,51.02
2019-03-08T09:52:57.481Z,53.68
2019-03-08T09:55:54.746Z,57.50
2019-03-08T09:58:44.645Z,52.13
2019-03-08T10:01:32.719Z,40.28
2019-03-08T10:04:15.935Z,52.15
2019-03-08T10:07:27.173Z,46.65
2019-03-08T10:10:27.549Z,40.65
2019-03-08T10:13:20.246Z,50.10
2019-03-08T10:19:10.238Z,36.08
2019-03-08T10:22:10.795Z,48.20
2019-03-08T10:25:04.537Z,45.78
2019-03-08T10:28:09.888Z,44.77
2019-03-08T10:31:03.203Z,43.65
2019-03-08T10:33:53.364Z,45.80
2019-03-08T10:36:40.845Z,40.90
2019-03-08T10:39:33.589Z,39.92
2019-03-08T10:42:17.730Z,39.65
2019-03-08T10:45:08.195Z,38.67
2019-03-08T10:48:16.722Z,44.23
2019-03-08T10:51:09.542Z,35.70
2019-03-08T10:56:49.566Z,41.05
2019-03-08T10:59:34.911Z,47.50
2019-03-08T11:02:22.003Z,43.35
2019-03-08T11:05:33.088Z,39.58
2019-03-08T11:08:29.831Z,43.15
2019-03-08T11:11:18.064Z,37.17
2019-03-08T11:14:14.808Z,44.53
2019-03-08T11:17:03.409Z,38.10
2019-03-08T11:19:59.182Z,38.42
2019-03-08T11:23:01.190Z,44.15
2019-03-08T11:25:55.112Z,45.23
2019-03-08T11:28:57.393Z,49.90
2019-03-08T11:31:49.075Z,46.68
2019-03-08T11:34:33.934Z,48.90
2019-03-08T11:37:17.076Z,49.83
2019-03-08T11:40:22.960Z,44.18
2019-03-08T11:43:06.249Z,43.98
2019-03-08T11:46:08.601Z,51.68
2019-03-08T11:49:07.457Z,41.92
2019-03-08T11:52:12.797Z,40.12
2019-03-08T11:55:04.421Z,48.85
2019-03-08T11:57:55.834Z,38.55
2019-03-08T12:00:48.549Z,33.38
2019-03-08T12:03:39.121Z,41.37
2019-03-08T12:06:26.752Z,33.98
2019-03-08T12:09:35.096Z,38.78
2019-03-08T12:12:37.132Z,39.00
2019-03-08T12:15:38.051Z,44.15
2019-03-08T12:18:34.364Z,34.15
2019-03-08T12:21:33.151Z,56.25
2019-03-08T12:24:25.559Z,67.75
2019-03-08T12:27:16.072Z,59.20
2019-03-08T12:30:00.172Z,54.53
2019-03-08T12:32:49.766Z,93.17
2019-03-08T12:35:49.695Z,96.63
2019-03-08T12:38:41.365Z,92.67
2019-03-08T12:41:24.627Z,83.15
2019-03-08T12:44:30.032Z,104.10
2019-03-08T12:47:35.035Z,91.02
2019-03-08T12:50:21.425Z,66.22
2019-03-08T12:53:07.137Z,72.50
2019-03-08T12:56:00.318Z,65.80
2019-03-08T12:58:53.371Z,52.93
2019-03-08T13:01:46.018Z,61.73
2019-03-08T13:04:36.782Z,54.40
2019-03-08T13:07:36.897Z,64.32
2019-03-08T13:10:14.462Z,68.55
2019-03-08T13:12:48.735Z,55.63
2019-03-08T13:15:23.101Z,64.50
2019-03-08T13:17:57.599Z,68.80
2019-03-08T13:20:32.186Z,51.42
2019-03-08T13:23:06.632Z,56.80
2019-03-08T13:25:40.797Z,57.13
2019-03-08T13:28:17.135Z,63.45
2019-03-08T13:30:51.423Z,61.80
2019-03-08T13:33:27.015Z,74.58
2019-03-08T13:36:01.401Z,62.98
2019-03-08T13:38:35.591Z,63.75
2019-03-08T13:41:13.011Z,66.67
2019-03-08T13:43:47.159Z,71.15
2019-03-08T13:46:21.564Z,68.33
2019-03-08T13:48:55.769Z,56.05
2019-03-08T13:51:31.041Z,62.05
2019-03-08T13:54:05.343Z,66.28
2019-03-08T13:56:39.485Z,59.48
2019-03-08T13:59:14.282Z,62.30
2019-03-08T14:01:48.560Z,60.88
2019-03-08T14:04:23.166Z,66.05
2019-03-08T14:06:57.450Z,54.33
2019-03-08T14:09:31.789Z,56.20
2019-03-08T14:12:06.163Z,52.23
2019-03-08T14:14:41.416Z,57.62
2019-03-08T14:17:15.744Z,55.20
2019-03-08T14:19:49.815Z,54.35
2019-03-08T14:22:24.367Z,52.35
2019-03-08T14:24:58.581Z,56.77
2019-03-08T14:27:32.633Z,54.18
2019-03-08T14:30:08.332Z,59.63
2019-03-08T14:32:42.764Z,58.45
2019-03-08T14:35:17.437Z,56.05
2019-03-08T14:37:52.438Z,54.33
2019-03-08T14:40:45.149Z,54.27
2019-03-08T14:43:28.096Z,56.70
2019-03-08T14:46:07.343Z,47.20
2019-03-08T14:48:42.567Z,67.97
2019-03-08T14:51:16.944Z,80.03
2019-03-08T14:53:51.038Z,83.85
2019-03-08T14:56:25.332Z,80.55
2019-03-08T14:58:59.810Z,80.90
2019-03-08T15:01:34.124Z,76.55
2019-03-08T15:04:08.697Z,86.78
2019-03-08T15:06:43.117Z,80.42
2019-03-08T15:09:17.605Z,86.80
2019-03-08T15:11:52.237Z,91.28
2019-03-08T15:14:30.263Z,97.35
2019-03-08T15:17:09.222Z,91.55
2019-03-08T15:19:40.322Z,82.05
2019-03-08T15:22:14.766Z,77.62
2019-03-08T15:24:48.921Z,79.35
2019-03-08T15:27:25.668Z,76.10
2019-03-08T15:30:00.371Z,82.62
2019-03-08T15:32:34.719Z,95.03
2019-03-08T15:35:10.585Z,81.40
2019-03-08T15:37:45.061Z,76.77
2019-03-08T15:40:37.418Z,85.32
2019-03-08T15:43:13.915Z,90.15
2019-03-08T15:45:47.836Z,88.25
2019-03-08T15:48:22.014Z,71.57
2019-03-08T15:50:56.470Z,85.47
2019-03-08T15:53:30.867Z,72.82
2019-03-08T15:56:05.283Z,76.40
2019-03-08T15:58:40.050Z,60.80
2019-03-08T16:01:14.273Z,68.33
2019-03-08T16:03:48.368Z,76.37
2019-03-08T16:06:23.628Z,69.27
2019-03-08T16:08:57.749Z,66.10
2019-03-08T16:11:32.021Z,71.57
2019-03-08T16:14:08.991Z,61.50
2019-03-08T16:16:46.931Z,65.55
2019-03-08T16:19:24.786Z,58.28
2019-03-08T16:21:57.438Z,54.93
2019-03-08T16:24:33.627Z,57.65
2019-03-08T16:27:07.896Z,56.85
2019-03-08T16:29:41.840Z,61.50
2019-03-08T16:32:40.964Z,53.52
2019-03-08T16:35:15.202Z,54.95
2019-03-08T16:38:08.042Z,57.67
2019-03-08T16:43:46.729Z,59.73
2019-03-08T16:46:27.129Z,57.37
2019-03-08T16:49:09.443Z,52.35
2019-03-08T16:52:05.043Z,52.95
2019-03-08T16:54:57.482Z,48.28
2019-03-08T16:57:42.824Z,50.33
2019-03-08T17:00:25.477Z,50.08
2019-03-08T17:06:00.223Z,49.40
2019-03-08T17:08:42.277Z,44.80
2019-03-08T17:11:38.553Z,54.70
2019-03-08T17:14:34.473Z,51.02
2019-03-08T17:17:33.822Z,47.78
2019-03-08T17:20:32.263Z,51.75
2019-03-08T17:23:24.702Z,54.50
2019-03-08T17:26:14.955Z,47.25
2019-03-08T17:29:14.206Z,65.92
2019-03-08T17:32:02.556Z,90.25
2019-03-08T17:34:53.865Z,77.70
2019-03-08T17:37:55.715Z,69.15
2019-03-08T17:40:48.365Z,65.50
2019-03-08T17:46:36.534Z,63.73
2019-03-08T17:52:34.516Z,55.15
2019-03-08T17:55:24.186Z,63.05
2019-03-08T17:58:20.382Z,66.90
2019-03-08T18:01:19.168Z,54.60
2019-03-08T18:04:02.233Z,58.17
2019-03-08T18:07:01.831Z,56.88
2019-03-08T18:09:50.448Z,50.15
2019-03-08T18:12:46.282Z,52.55
2019-03-08T18:15:40.006Z,48.80
2019-03-08T18:18:32.027Z,46.55
2019-03-08T18:21:19.684Z,50.83
2019-03-08T18:24:28.173Z,44.88
2019-03-08T18:27:27.167Z,46.48
2019-03-08T18:30:29.187Z,52.35
2019-03-08T18:33:37.244Z,49.08
2019-03-08T18:36:18.232Z,54.45
2019-03-08T18:39:20.440Z,61.40
2019-03-08T18:42:22.351Z,51.57
2019-03-08T18:45:19.913Z,50.92
2019-03-08T18:48:20.092Z,47.65
2019-03-08T18:51:07.652Z,41.13
2019-03-08T18:54:03.180Z,41.68
2019-03-08T18:56:55.007Z,45.30
2019-03-08T19:00:00.368Z,48.97
2019-03-08T19:02:57.305Z,43.10
2019-03-08T19:05:54.248Z,39.92
2019-03-08T19:08:53.969Z,43.55
2019-03-08T19:11:42.421Z,44.48
2019-03-08T19:14:35.328Z,40.80
2019-03-08T19:17:37.479Z,36.95
2019-03-08T19:20:39.299Z,40.25
2019-03-08T19:23:23.290Z,40.95
2019-03-08T19:26:16.340Z,37.88
2019-03-08T19:28:59.258Z,39.85
2019-03-08T19:31:42.476Z,40.90
2019-03-08T19:34:28.185Z,38.28
2019-03-08T19:37:11.198Z,40.75
2019-03-08T19:40:04.812Z,45.52
2019-03-08T19:42:51.768Z,41.25
2019-03-08T19:45:51.127Z,49.85
2019-03-08T19:48:42.359Z,41.70
2019-03-08T19:51:41.297Z,37.88
2019-03-08T19:54:23.199Z,40.50
2019-03-08T19:57:11.079Z,34.58
2019-03-08T20:00:06.790Z,41.08
2019-03-08T20:02:48.746Z,50.10
2019-03-08T20:05:35.317Z,35.50
2019-03-08T20:08:23.795Z,40.28
2019-03-08T20:11:16.291Z,35.68
2019-03-08T20:14:03.184Z,48.38
2019-03-08T20:16:55.642Z,34.88
2019-03-08T20:20:02.011Z,47.25
2019-03-08T20:22:54.446Z,37.63
2019-03-08T20:25:51.193Z,37.60
2019-03-08T20:28:37.961Z,37.65
2019-03-08T20:31:29.259Z,33.88
2019-03-08T20:34:20.803Z,32.50
2019-03-08T20:37:11.593Z,34.05
2019-03-08T20:40:09.255Z,31.57
2019-03-08T20:42:51.618Z,36.53
2019-03-08T20:45:39.595Z,38.53
2019-03-08T20:48:13.785Z,39.18
2019-03-08T20:50:47.971Z,39.85
2019-03-08T20:53:25.060Z,34.13
2019-03-08T20:55:59.491Z,38.83
2019-03-08T20:58:34.034Z,35.83
2019-03-08T21:01:09.290Z,47.25
2019-03-08T21:03:43.372Z,39.83
2019-03-08T21:06:17.424Z,37.65
2019-03-08T21:08:52.115Z,41.15
2019-03-08T21:11:27.153Z,32.63
2019-03-08T21:14:02.322Z,36.03
2019-03-08T21:16:37.412Z,40.05
2019-03-08T21:19:11.844Z,33.85
2019-03-08T21:21:46.237Z,34.75
2019-03-08T21:24:20.181Z,38.70
2019-03-08T21:26:54.641Z,35.95
2019-03-08T21:29:31.297Z,35.80
2019-03-08T21:32:07.452Z,37.80
2019-03-08T21:34:41.555Z,37.42
2019-03-08T21:37:15.700Z,36.93
2019-03-08T21:39:49.756Z,36.90
2019-03-08T21:42:24.026Z,35.15
2019-03-08T21:45:00.340Z,32.60
2019-03-08T21:47:36.186Z,35.45
2019-03-08T21:50:11.587Z,35.45
2019-03-08T21:52:47.892Z,35.25
2019-03-08T21:55:22.253Z,37.20
2019-03-08T21:57:56.649Z,34.10
2019-03-08T22:00:31.525Z,38.67
2019-03-08T22:03:08.236Z,36.45
2019-03-08T22:05:44.626Z,39.83
2019-03-08T22:08:19.718Z,35.78
2019-03-08T22:11:17.477Z,39.98
2019-03-08T22:13:52.385Z,37.28
2019-03-08T22:16:26.746Z,36.23
2019-03-08T22:19:01.902Z,34.23
2019-03-08T22:21:38.113Z,39.45
2019-03-08T22:24:13.621Z,36.40
2019-03-08T22:26:47.865Z,38.15
2019-03-08T22:29:22.219Z,38.13
2019-03-08T22:31:56.659Z,35.35
2019-03-08T22:34:31.006Z,34.90
2019-03-08T22:37:05.198Z,37.03
2019-03-08T22:39:40.806Z,35.80
2019-03-08T22:42:15.127Z,43.00
2019-03-08T22:44:49.492Z,37.73
2019-03-08T22:47:23.731Z,42.90
2019-03-08T22:49:58.039Z,36.08
2019-03-08T22:52:35.070Z,39.67
2019-03-08T22:55:12.159Z,35.03
2019-03-08T22:57:46.250Z,37.45
2019-03-08T23:01:23.687Z,33.85
2019-03-08T23:03:58.087Z,42.15
2019-03-08T23:06:32.496Z,39.70
2019-03-08T23:09:08.353Z,34.80
2019-03-08T23:11:43.976Z,38.60
2019-03-08T23:14:18.102Z,38.38
2019-03-08T23:16:52.337Z,39.20
2019-03-08T23:19:26.670Z,38.63
2019-03-08T23:22:01.948Z,35.90
2019-03-08T23:24:37.641Z,38.75
2019-03-08T23:27:39.676Z,36.68
2019-03-08T23:30:19.287Z,35.03
2019-03-08T23:32:55.413Z,36.53
2019-03-08T23:35:29.675Z,37.90
2019-03-08T23:38:04.256Z,40.33
2019-03-08T23:40:38.671Z,39.33
2019-03-08T23:43:12.808Z,40.75
2019-03-08T23:45:47.184Z,37.28
2019-03-08T23:48:21.453Z,37.60
2019-03-08T23:50:56.576Z,43.25
2019-03-08T23:53:31.979Z,39.15
2019-03-08T23:56:06.397Z,41.70
2019-03-08T23:58:40.700Z,41.08
